sensor_id;sensor_type;location;lat;lon;timestamp;noise_LAeq;noise_LA_min;noise_LA_max;noise_LA01;noise_LA95
72028;Laerm;59781;52.090;5.030;2023-03-01T00:00:40;40.60;38.27;45.19;;
72028;Laerm;59781;52.090;5.030;2023-03-01T00:03:06;40.37;38.31;42.70;;
72028;Laerm;59781;52.090;5.030;2023-03-01T00:05:32;40.91;38.47;44.71;;
72028;Laerm;59781;52.090;5.030;2023-03-01T00:07:58;40.52;38.65;43.34;;
72028;Laerm;59781;52.090;5.030;2023-03-01T00:10:24;40.44;38.27;45.00;;
72028;Laerm;59781;52.090;5.030;2023-03-01T00:12:49;40.35;38.57;45.34;;
72028;Laerm;59781;52.090;5.030;2023-03-01T00:15:15;40.37;38.29;43.39;;
72028;Laerm;59781;52.090;5.030;2023-03-01T00:17:41;40.20;38.29;42.45;;
72028;Laerm;59781;52.090;5.030;2023-03-01T00:20:07;40.29;38.23;42.55;;
72028;Laerm;59781;52.090;5.030;2023-03-01T00:22:36;40.76;38.60;44.94;;
72028;Laerm;59781;52.090;5.030;2023-03-01T00:25:03;40.58;38.24;45.32;;
72028;Laerm;59781;52.090;5.030;2023-03-01T00:27:29;40.48;38.54;42.22;;
72028;Laerm;59781;52.090;5.030;2023-03-01T00:29:55;40.65;38.47;43.79;;
72028;Laerm;59781;52.090;5.030;2023-03-01T00:32:20;40.82;38.30;54.30;;
72028;Laerm;59781;52.090;5.030;2023-03-01T00:34:46;40.97;38.22;47.42;;
72028;Laerm;59781;52.090;5.030;2023-03-01T00:37:23;40.91;38.91;47.50;;
72028;Laerm;59781;52.090;5.030;2023-03-01T00:39:50;42.12;39.74;47.10;;
72028;Laerm;59781;52.090;5.030;2023-03-01T00:42:16;41.19;38.85;43.46;;
72028;Laerm;59781;52.090;5.030;2023-03-01T00:44:42;41.49;39.12;44.11;;
72028;Laerm;59781;52.090;5.030;2023-03-01T00:47:08;40.86;38.22;49.56;;
72028;Laerm;59781;52.090;5.030;2023-03-01T00:49:34;40.29;38.10;42.43;;
72028;Laerm;59781;52.090;5.030;2023-03-01T00:52:00;40.21;38.28;47.08;;
72028;Laerm;59781;52.090;5.030;2023-03-01T00:54:26;40.26;38.39;41.85;;
72028;Laerm;59781;52.090;5.030;2023-03-01T00:56:51;40.02;38.16;42.40;;
72028;Laerm;59781;52.090;5.030;2023-03-01T00:59:17;40.40;38.29;43.86;;
72028;Laerm;59781;52.090;5.030;2023-03-01T01:01:43;40.46;38.69;42.47;;
72028;Laerm;59781;52.090;5.030;2023-03-01T01:04:12;40.90;38.96;44.69;;
72028;Laerm;59781;52.090;5.030;2023-03-01T01:06:44;40.74;38.15;55.36;;
72028;Laerm;59781;52.090;5.030;2023-03-01T01:09:14;39.69;37.85;41.86;;
72028;Laerm;59781;52.090;5.030;2023-03-01T01:11:50;39.69;37.53;41.44;;
72028;Laerm;59781;52.090;5.030;2023-03-01T01:14:18;39.98;37.78;43.39;;
72028;Laerm;59781;52.090;5.030;2023-03-01T01:16:44;39.79;37.95;41.37;;
72028;Laerm;59781;52.090;5.030;2023-03-01T01:19:14;39.94;37.85;42.81;;
72028;Laerm;59781;52.090;5.030;2023-03-01T01:21:41;39.82;38.00;45.61;;
72028;Laerm;59781;52.090;5.030;2023-03-01T01:24:09;39.94;37.86;43.39;;
72028;Laerm;59781;52.090;5.030;2023-03-01T01:26:35;40.23;37.60;46.94;;
72028;Laerm;59781;52.090;5.030;2023-03-01T01:29:04;39.56;37.88;41.42;;
72028;Laerm;59781;52.090;5.030;2023-03-01T01:31:33;39.62;37.51;41.44;;
72028;Laerm;59781;52.090;5.030;2023-03-01T01:34:02;39.98;37.71;43.28;;
72028;Laerm;59781;52.090;5.030;2023-03-01T01:36:29;39.88;37.72;41.68;;
72028;Laerm;59781;52.090;5.030;2023-03-01T01:38:55;39.74;37.85;41.93;;
72028;Laerm;59781;52.090;5.030;2023-03-01T01:41:22;39.77;38.05;42.53;;
72028;Laerm;59781;52.090;5.030;2023-03-01T01:44:35;39.65;37.71;41.35;;
72028;Laerm;59781;52.090;5.030;2023-03-01T01:47:12;40.09;37.86;43.35;;
72028;Laerm;59781;52.090;5.030;2023-03-01T01:49:49;41.82;39.26;44.54;;
72028;Laerm;59781;52.090;5.030;2023-03-01T01:52:24;41.38;38.73;45.19;;
72028;Laerm;59781;52.090;5.030;2023-03-01T01:55:10;40.49;38.45;44.53;;
72028;Laerm;59781;52.090;5.030;2023-03-01T01:57:53;39.92;37.77;41.76;;
72028;Laerm;59781;52.090;5.030;2023-03-01T02:00:26;39.64;37.24;41.21;;
72028;Laerm;59781;52.090;5.030;2023-03-01T02:03:03;39.75;37.85;42.08;;
72028;Laerm;59781;52.090;5.030;2023-03-01T02:05:51;40.32;37.97;48.83;;
72028;Laerm;59781;52.090;5.030;2023-03-01T02:08:23;39.88;38.08;43.91;;
72028;Laerm;59781;52.090;5.030;2023-03-01T02:10:52;40.02;37.99;41.74;;
72028;Laerm;59781;52.090;5.030;2023-03-01T02:13:20;39.79;38.05;41.54;;
72028;Laerm;59781;52.090;5.030;2023-03-01T02:15:46;39.86;37.71;42.64;;
72028;Laerm;59781;52.090;5.030;2023-03-01T02:18:17;39.68;37.64;41.55;;
72028;Laerm;59781;52.090;5.030;2023-03-01T02:23:28;39.69;37.59;42.68;;
72028;Laerm;59781;52.090;5.030;2023-03-01T02:26:36;39.68;37.32;41.40;;
72028;Laerm;59781;52.090;5.030;2023-03-01T02:29:03;39.65;37.83;41.58;;
72028;Laerm;59781;52.090;5.030;2023-03-01T02:31:31;39.82;37.93;44.81;;
72028;Laerm;59781;52.090;5.030;2023-03-01T02:34:12;40.44;37.69;47.86;;
72028;Laerm;59781;52.090;5.030;2023-03-01T02:36:56;39.87;37.53;47.03;;
72028;Laerm;59781;52.090;5.030;2023-03-01T02:39:48;39.63;37.62;41.44;;
72028;Laerm;59781;52.090;5.030;2023-03-01T02:42:23;39.69;37.93;41.38;;
72028;Laerm;59781;52.090;5.030;2023-03-01T02:44:49;39.76;38.00;42.65;;
72028;Laerm;59781;52.090;5.030;2023-03-01T02:47:15;39.64;37.34;43.36;;
72028;Laerm;59781;52.090;5.030;2023-03-01T02:49:41;39.40;37.48;41.06;;
72028;Laerm;59781;52.090;5.030;2023-03-01T02:52:37;39.57;37.56;43.79;;
72028;Laerm;59781;52.090;5.030;2023-03-01T02:55:12;39.51;37.75;41.04;;
72028;Laerm;59781;52.090;5.030;2023-03-01T02:57:44;39.37;37.47;41.02;;
72028;Laerm;59781;52.090;5.030;2023-03-01T03:00:15;39.53;37.67;41.13;;
72028;Laerm;59781;52.090;5.030;2023-03-01T03:02:47;40.46;37.85;46.55;;
72028;Laerm;59781;52.090;5.030;2023-03-01T03:05:22;39.86;37.53;42.84;;
72028;Laerm;59781;52.090;5.030;2023-03-01T03:07:52;40.14;38.01;45.33;;
72028;Laerm;59781;52.090;5.030;2023-03-01T03:10:37;39.99;37.98;42.63;;
72028;Laerm;59781;52.090;5.030;2023-03-01T03:13:12;41.45;37.72;55.32;;
72028;Laerm;59781;52.090;5.030;2023-03-01T03:15:40;39.97;37.84;42.79;;
72028;Laerm;59781;52.090;5.030;2023-03-01T03:18:12;40.10;38.12;43.67;;
72028;Laerm;59781;52.090;5.030;2023-03-01T03:20:41;39.73;38.17;41.25;;
72028;Laerm;59781;52.090;5.030;2023-03-01T03:23:07;39.70;37.39;41.56;;
72028;Laerm;59781;52.090;5.030;2023-03-01T03:25:33;39.84;37.55;44.27;;
72028;Laerm;59781;52.090;5.030;2023-03-01T03:28:05;39.92;38.08;42.05;;
72028;Laerm;59781;52.090;5.030;2023-03-01T03:30:39;39.83;37.74;41.42;;
72028;Laerm;59781;52.090;5.030;2023-03-01T03:33:07;39.84;37.34;41.52;;
72028;Laerm;59781;52.090;5.030;2023-03-01T03:35:41;39.69;37.59;41.39;;
72028;Laerm;59781;52.090;5.030;2023-03-01T03:38:12;39.96;37.83;43.61;;
72028;Laerm;59781;52.090;5.030;2023-03-01T03:40:50;39.99;37.77;45.40;;
72028;Laerm;59781;52.090;5.030;2023-03-01T03:43:22;40.44;38.16;44.46;;
72028;Laerm;59781;52.090;5.030;2023-03-01T03:45:50;40.22;38.13;44.77;;
72028;Laerm;59781;52.090;5.030;2023-03-01T03:48:17;40.41;38.12;45.39;;
72028;Laerm;59781;52.090;5.030;2023-03-01T03:50:50;40.17;38.15;42.95;;
72028;Laerm;59781;52.090;5.030;2023-03-01T03:53:18;40.29;38.43;42.30;;
72028;Laerm;59781;52.090;5.030;2023-03-01T03:55:44;40.35;38.32;42.33;;
72028;Laerm;59781;52.090;5.030;2023-03-01T03:58:11;40.51;37.68;45.67;;
72028;Laerm;59781;52.090;5.030;2023-03-01T04:00:41;40.26;38.10;42.32;;
72028;Laerm;59781;52.090;5.030;2023-03-01T04:03:09;40.58;38.30;43.34;;
72028;Laerm;59781;52.090;5.030;2023-03-01T04:05:38;40.54;38.50;43.94;;
72028;Laerm;59781;52.090;5.030;2023-03-01T04:08:05;40.20;37.75;43.25;;
72028;Laerm;59781;52.090;5.030;2023-03-01T04:10:39;40.69;38.43;43.11;;
72028;Laerm;59781;52.090;5.030;2023-03-01T04:13:08;40.53;38.45;47.31;;
72028;Laerm;59781;52.090;5.030;2023-03-01T04:15:35;41.25;38.29;47.60;;
72028;Laerm;59781;52.090;5.030;2023-03-01T04:18:02;40.80;38.65;45.51;;
72028;Laerm;59781;52.090;5.030;2023-03-01T04:20:32;40.72;38.68;44.73;;
72028;Laerm;59781;52.090;5.030;2023-03-01T04:23:14;41.55;38.48;48.55;;
72028;Laerm;59781;52.090;5.030;2023-03-01T04:25:56;41.12;38.47;49.31;;
72028;Laerm;59781;52.090;5.030;2023-03-01T04:28:34;40.68;38.50;44.52;;
72028;Laerm;59781;52.090;5.030;2023-03-01T04:31:12;41.24;38.81;47.10;;
72028;Laerm;59781;52.090;5.030;2023-03-01T04:33:50;42.69;39.18;54.01;;
72028;Laerm;59781;52.090;5.030;2023-03-01T04:36:19;42.06;38.79;47.88;;
72028;Laerm;59781;52.090;5.030;2023-03-01T04:38:46;42.04;39.05;46.91;;
72028;Laerm;59781;52.090;5.030;2023-03-01T04:41:18;42.25;39.40;49.92;;
72028;Laerm;59781;52.090;5.030;2023-03-01T04:43:45;42.10;38.72;50.53;;
72028;Laerm;59781;52.090;5.030;2023-03-01T04:46:15;41.83;39.13;47.71;;
72028;Laerm;59781;52.090;5.030;2023-03-01T04:48:43;41.84;39.14;45.41;;
72028;Laerm;59781;52.090;5.030;2023-03-01T04:51:11;42.06;39.20;50.66;;
72028;Laerm;59781;52.090;5.030;2023-03-01T04:53:40;43.43;39.45;65.37;;
72028;Laerm;59781;52.090;5.030;2023-03-01T04:56:07;42.29;38.88;47.08;;
72028;Laerm;59781;52.090;5.030;2023-03-01T04:58:32;41.34;39.14;44.82;;
72028;Laerm;59781;52.090;5.030;2023-03-01T05:00:58;41.48;39.16;44.66;;
72028;Laerm;59781;52.090;5.030;2023-03-01T05:03:24;43.51;39.94;50.22;;
72028;Laerm;59781;52.090;5.030;2023-03-01T05:05:52;41.37;38.74;45.26;;
72028;Laerm;59781;52.090;5.030;2023-03-01T05:08:18;42.36;39.05;47.05;;
72028;Laerm;59781;52.090;5.030;2023-03-01T05:10:52;42.85;40.00;49.48;;
72028;Laerm;59781;52.090;5.030;2023-03-01T05:13:20;42.69;40.02;47.17;;
72028;Laerm;59781;52.090;5.030;2023-03-01T05:15:56;43.35;40.49;48.15;;
72028;Laerm;59781;52.090;5.030;2023-03-01T05:18:23;43.37;40.37;46.51;;
72028;Laerm;59781;52.090;5.030;2023-03-01T05:20:56;43.16;40.14;48.67;;
72028;Laerm;59781;52.090;5.030;2023-03-01T05:23:26;42.52;39.92;49.29;;
72028;Laerm;59781;52.090;5.030;2023-03-01T05:25:52;43.25;40.18;47.79;;
72028;Laerm;59781;52.090;5.030;2023-03-01T05:28:20;43.22;40.01;58.28;;
72028;Laerm;59781;52.090;5.030;2023-03-01T05:30:46;43.17;39.92;50.56;;
72028;Laerm;59781;52.090;5.030;2023-03-01T05:33:12;42.69;39.94;59.57;;
72028;Laerm;59781;52.090;5.030;2023-03-01T05:35:42;42.74;39.96;57.57;;
72028;Laerm;59781;52.090;5.030;2023-03-01T05:38:11;43.10;40.48;49.96;;
72028;Laerm;59781;52.090;5.030;2023-03-01T05:40:41;43.49;40.83;47.92;;
72028;Laerm;59781;52.090;5.030;2023-03-01T05:43:07;43.88;40.53;54.02;;
72028;Laerm;59781;52.090;5.030;2023-03-01T05:45:37;43.63;40.43;48.40;;
72028;Laerm;59781;52.090;5.030;2023-03-01T05:48:05;43.88;40.87;52.75;;
72028;Laerm;59781;52.090;5.030;2023-03-01T05:50:38;44.06;40.61;48.87;;
72028;Laerm;59781;52.090;5.030;2023-03-01T05:53:17;43.37;40.79;47.97;;
72028;Laerm;59781;52.090;5.030;2023-03-01T05:55:44;43.85;40.44;50.39;;
72028;Laerm;59781;52.090;5.030;2023-03-01T05:58:16;43.95;40.75;49.40;;
72028;Laerm;59781;52.090;5.030;2023-03-01T06:00:45;43.93;40.52;52.53;;
72028;Laerm;59781;52.090;5.030;2023-03-01T06:03:14;43.72;40.86;48.07;;
72028;Laerm;59781;52.090;5.030;2023-03-01T06:05:41;44.15;40.81;49.46;;
72028;Laerm;59781;52.090;5.030;2023-03-01T06:08:10;43.59;40.57;57.69;;
72028;Laerm;59781;52.090;5.030;2023-03-01T06:10:36;44.84;41.14;50.25;;
72028;Laerm;59781;52.090;5.030;2023-03-01T06:13:02;44.48;40.60;59.61;;
72028;Laerm;59781;52.090;5.030;2023-03-01T06:15:28;46.63;40.68;63.67;;
72028;Laerm;59781;52.090;5.030;2023-03-01T06:17:55;44.48;40.40;51.11;;
72028;Laerm;59781;52.090;5.030;2023-03-01T06:20:28;44.28;40.32;51.04;;
72028;Laerm;59781;52.090;5.030;2023-03-01T06:22:54;44.99;41.98;57.20;;
72028;Laerm;59781;52.090;5.030;2023-03-01T06:25:23;44.99;41.15;67.21;;
72028;Laerm;59781;52.090;5.030;2023-03-01T06:27:50;44.47;40.98;50.27;;
72028;Laerm;59781;52.090;5.030;2023-03-01T06:30:21;49.94;41.55;73.62;;
72028;Laerm;59781;52.090;5.030;2023-03-01T06:32:48;45.76;42.59;50.77;;
72028;Laerm;59781;52.090;5.030;2023-03-01T06:35:16;47.00;41.62;55.13;;
72028;Laerm;59781;52.090;5.030;2023-03-01T06:37:47;45.63;41.57;62.95;;
72028;Laerm;59781;52.090;5.030;2023-03-01T06:40:15;45.36;41.21;58.34;;
72028;Laerm;59781;52.090;5.030;2023-03-01T06:42:48;44.97;41.16;51.81;;
72028;Laerm;59781;52.090;5.030;2023-03-01T06:45:14;45.64;41.96;56.13;;
72028;Laerm;59781;52.090;5.030;2023-03-01T06:47:40;47.19;42.78;56.66;;
72028;Laerm;59781;52.090;5.030;2023-03-01T06:50:06;46.82;43.43;53.52;;
72028;Laerm;59781;52.090;5.030;2023-03-01T06:52:33;46.21;42.47;64.22;;
72028;Laerm;59781;52.090;5.030;2023-03-01T06:54:59;46.32;42.29;67.02;;
72028;Laerm;59781;52.090;5.030;2023-03-01T06:57:25;45.62;42.42;50.63;;
72028;Laerm;59781;52.090;5.030;2023-03-01T06:59:51;44.88;41.79;56.64;;
72028;Laerm;59781;52.090;5.030;2023-03-01T07:02:17;46.52;42.80;54.90;;
72028;Laerm;59781;52.090;5.030;2023-03-01T07:04:43;45.47;42.16;51.97;;
72028;Laerm;59781;52.090;5.030;2023-03-01T07:07:10;51.02;42.16;73.50;;
72028;Laerm;59781;52.090;5.030;2023-03-01T07:09:36;45.26;42.37;52.34;;
72028;Laerm;59781;52.090;5.030;2023-03-01T07:12:02;45.47;42.77;49.15;;
72028;Laerm;59781;52.090;5.030;2023-03-01T07:14:28;45.96;42.32;58.19;;
72028;Laerm;59781;52.090;5.030;2023-03-01T07:16:54;45.53;42.67;60.53;;
72028;Laerm;59781;52.090;5.030;2023-03-01T07:19:21;46.42;42.77;52.48;;
72028;Laerm;59781;52.090;5.030;2023-03-01T07:21:47;46.42;42.48;55.53;;
72028;Laerm;59781;52.090;5.030;2023-03-01T07:24:13;46.39;42.57;56.26;;
72028;Laerm;59781;52.090;5.030;2023-03-01T07:26:38;45.23;41.71;53.59;;
72028;Laerm;59781;52.090;5.030;2023-03-01T07:29:06;47.35;41.52;67.01;;
72028;Laerm;59781;52.090;5.030;2023-03-01T07:31:33;45.82;41.62;64.33;;
72028;Laerm;59781;52.090;5.030;2023-03-01T07:33:59;43.95;41.17;52.56;;
72028;Laerm;59781;52.090;5.030;2023-03-01T07:36:25;45.08;40.79;65.24;;
72028;Laerm;59781;52.090;5.030;2023-03-01T07:38:51;44.80;41.26;58.45;;
72028;Laerm;59781;52.090;5.030;2023-03-01T07:41:17;49.77;41.55;70.01;;
72028;Laerm;59781;52.090;5.030;2023-03-01T07:43:43;45.31;41.25;57.45;;
72028;Laerm;59781;52.090;5.030;2023-03-01T07:46:09;44.90;41.36;53.54;;
72028;Laerm;59781;52.090;5.030;2023-03-01T07:48:35;46.69;41.61;69.55;;
72028;Laerm;59781;52.090;5.030;2023-03-01T07:51:05;46.21;41.21;60.22;;
72028;Laerm;59781;52.090;5.030;2023-03-01T07:53:33;44.18;40.78;55.58;;
72028;Laerm;59781;52.090;5.030;2023-03-01T07:56:12;45.68;41.51;56.28;;
72028;Laerm;59781;52.090;5.030;2023-03-01T07:58:41;44.53;41.01;53.83;;
72028;Laerm;59781;52.090;5.030;2023-03-01T08:01:13;45.69;42.55;59.27;;
72028;Laerm;59781;52.090;5.030;2023-03-01T08:03:39;44.72;41.47;52.40;;
72028;Laerm;59781;52.090;5.030;2023-03-01T08:06:08;45.60;42.19;56.50;;
72028;Laerm;59781;52.090;5.030;2023-03-01T08:08:35;46.02;41.80;67.91;;
72028;Laerm;59781;52.090;5.030;2023-03-01T08:11:04;44.85;41.67;53.09;;
72028;Laerm;59781;52.090;5.030;2023-03-01T08:13:31;44.89;41.50;54.03;;
72028;Laerm;59781;52.090;5.030;2023-03-01T08:16:06;44.62;41.75;48.58;;
72028;Laerm;59781;52.090;5.030;2023-03-01T08:18:33;47.15;41.92;57.60;;
72028;Laerm;59781;52.090;5.030;2023-03-01T08:21:16;44.07;41.15;52.35;;
72028;Laerm;59781;52.090;5.030;2023-03-01T08:23:43;44.35;41.27;54.00;;
72028;Laerm;59781;52.090;5.030;2023-03-01T08:26:18;44.29;41.23;59.27;;
72028;Laerm;59781;52.090;5.030;2023-03-01T08:28:46;45.64;41.52;65.46;;
72028;Laerm;59781;52.090;5.030;2023-03-01T08:31:36;45.57;41.90;56.45;;
72028;Laerm;59781;52.090;5.030;2023-03-01T08:34:09;44.94;41.48;57.25;;
72028;Laerm;59781;52.090;5.030;2023-03-01T08:36:40;45.65;41.26;59.84;;
72028;Laerm;59781;52.090;5.030;2023-03-01T08:39:08;45.43;42.04;58.07;;
72028;Laerm;59781;52.090;5.030;2023-03-01T08:41:34;46.29;41.63;59.29;;
72028;Laerm;59781;52.090;5.030;2023-03-01T08:44:01;45.10;41.79;56.40;;
72028;Laerm;59781;52.090;5.030;2023-03-01T08:46:41;46.05;41.74;55.32;;
72028;Laerm;59781;52.090;5.030;2023-03-01T08:49:13;45.87;41.70;66.59;;
72028;Laerm;59781;52.090;5.030;2023-03-01T08:51:39;45.72;41.55;56.48;;
72028;Laerm;59781;52.090;5.030;2023-03-01T08:54:14;45.92;41.23;59.19;;
72028;Laerm;59781;52.090;5.030;2023-03-01T08:56:41;44.10;40.89;52.48;;
72028;Laerm;59781;52.090;5.030;2023-03-01T08:59:07;44.34;40.90;57.62;;
72028;Laerm;59781;52.090;5.030;2023-03-01T09:01:33;45.38;41.55;56.75;;
72028;Laerm;59781;52.090;5.030;2023-03-01T09:03:59;45.82;41.75;70.55;;
72028;Laerm;59781;52.090;5.030;2023-03-01T09:06:25;45.86;41.12;61.63;;
72028;Laerm;59781;52.090;5.030;2023-03-01T09:08:51;44.30;39.92;57.28;;
72028;Laerm;59781;52.090;5.030;2023-03-01T09:11:20;43.74;40.05;50.88;;
72028;Laerm;59781;52.090;5.030;2023-03-01T09:13:48;43.77;40.32;50.97;;
72028;Laerm;59781;52.090;5.030;2023-03-01T09:16:18;44.23;40.79;68.09;;
72028;Laerm;59781;52.090;5.030;2023-03-01T09:18:48;43.89;40.47;52.29;;
72028;Laerm;59781;52.090;5.030;2023-03-01T09:21:16;43.13;40.00;48.52;;
72028;Laerm;59781;52.090;5.030;2023-03-01T09:23:45;43.82;39.51;59.42;;
72028;Laerm;59781;52.090;5.030;2023-03-01T09:26:16;43.78;39.75;66.02;;
72028;Laerm;59781;52.090;5.030;2023-03-01T09:28:43;43.14;39.52;49.74;;
72028;Laerm;59781;52.090;5.030;2023-03-01T09:31:10;42.85;39.59;48.25;;
72028;Laerm;59781;52.090;5.030;2023-03-01T09:33:40;43.04;39.85;64.14;;
72028;Laerm;59781;52.090;5.030;2023-03-01T09:36:12;43.34;39.25;56.27;;
72028;Laerm;59781;52.090;5.030;2023-03-01T09:38:39;44.37;39.24;67.87;;
72028;Laerm;59781;52.090;5.030;2023-03-01T09:46:43;42.90;39.80;59.32;;
72028;Laerm;59781;52.090;5.030;2023-03-01T09:49:18;43.17;39.41;58.70;;
72028;Laerm;59781;52.090;5.030;2023-03-01T09:52:23;44.14;39.83;60.82;;
72028;Laerm;59781;52.090;5.030;2023-03-01T09:54:55;43.61;39.30;64.27;;
72028;Laerm;59781;52.090;5.030;2023-03-01T09:58:29;42.99;38.87;53.40;;
72028;Laerm;59781;52.090;5.030;2023-03-01T10:01:38;42.51;39.23;51.36;;
72028;Laerm;59781;52.090;5.030;2023-03-01T10:04:26;42.64;39.21;51.36;;
72028;Laerm;59781;52.090;5.030;2023-03-01T10:07:54;45.70;38.34;66.67;;
72028;Laerm;59781;52.090;5.030;2023-03-01T10:10:40;43.02;39.00;56.86;;
72028;Laerm;59781;52.090;5.030;2023-03-01T10:16:15;46.04;39.44;76.19;;
72028;Laerm;59781;52.090;5.030;2023-03-01T10:18:58;44.65;39.56;54.53;;
72028;Laerm;59781;52.090;5.030;2023-03-01T10:21:28;43.50;39.09;62.83;;
72028;Laerm;59781;52.090;5.030;2023-03-01T10:24:13;44.15;39.81;56.67;;
72028;Laerm;59781;52.090;5.030;2023-03-01T10:32:39;43.30;39.35;52.36;;
72028;Laerm;59781;52.090;5.030;2023-03-01T10:35:27;44.01;39.87;54.46;;
72028;Laerm;59781;52.090;5.030;2023-03-01T10:38:11;43.92;39.96;69.65;;
72028;Laerm;59781;52.090;5.030;2023-03-01T10:40:54;43.21;39.70;51.96;;
72028;Laerm;59781;52.090;5.030;2023-03-01T10:43:21;43.09;40.01;50.53;;
72028;Laerm;59781;52.090;5.030;2023-03-01T10:45:48;44.94;40.60;58.80;;
72028;Laerm;59781;52.090;5.030;2023-03-01T10:48:31;43.16;39.88;54.66;;
72028;Laerm;59781;52.090;5.030;2023-03-01T10:53:41;43.97;39.98;61.54;;
72028;Laerm;59781;52.090;5.030;2023-03-01T10:56:11;43.75;39.74;55.21;;
72028;Laerm;59781;52.090;5.030;2023-03-01T10:58:59;48.94;40.49;71.17;;
72028;Laerm;59781;52.090;5.030;2023-03-01T11:01:29;43.74;39.67;57.11;;
72028;Laerm;59781;52.090;5.030;2023-03-01T11:06:38;44.05;40.11;66.49;;
72028;Laerm;59781;52.090;5.030;2023-03-01T11:09:19;44.98;39.03;56.60;;
72028;Laerm;59781;52.090;5.030;2023-03-01T11:11:46;45.47;39.49;59.41;;
72028;Laerm;59781;52.090;5.030;2023-03-01T11:14:22;52.51;40.63;63.73;;
72028;Laerm;59781;52.090;5.030;2023-03-01T11:17:04;44.46;39.85;65.79;;
72028;Laerm;59781;52.090;5.030;2023-03-01T11:19:32;42.73;39.56;49.98;;
72028;Laerm;59781;52.090;5.030;2023-03-01T11:22:20;42.70;39.57;48.79;;
72028;Laerm;59781;52.090;5.030;2023-03-01T11:24:51;43.47;39.15;59.91;;
72028;Laerm;59781;52.090;5.030;2023-03-01T11:27:28;42.51;39.44;54.83;;
72028;Laerm;59781;52.090;5.030;2023-03-01T11:30:12;42.71;39.07;62.61;;
72028;Laerm;59781;52.090;5.030;2023-03-01T11:35:42;42.96;38.99;49.93;;
72028;Laerm;59781;52.090;5.030;2023-03-01T11:38:26;42.88;39.41;53.83;;
72028;Laerm;59781;52.090;5.030;2023-03-01T11:41:18;43.63;39.47;55.78;;
72028;Laerm;59781;52.090;5.030;2023-03-01T11:44:03;43.93;39.59;64.95;;
72028;Laerm;59781;52.090;5.030;2023-03-01T11:52:33;43.56;39.37;63.34;;
72028;Laerm;59781;52.090;5.030;2023-03-01T12:01:32;43.94;40.04;55.68;;
72028;Laerm;59781;52.090;5.030;2023-03-01T12:07:25;42.80;39.47;63.36;;
72028;Laerm;59781;52.090;5.030;2023-03-01T12:10:37;42.80;39.28;61.52;;
72028;Laerm;59781;52.090;5.030;2023-03-01T12:22:09;49.01;39.55;63.75;;
72028;Laerm;59781;52.090;5.030;2023-03-01T12:34:25;43.33;39.32;58.89;;
72028;Laerm;59781;52.090;5.030;2023-03-01T12:37:27;48.39;39.81;81.49;;
72028;Laerm;59781;52.090;5.030;2023-03-01T12:40:16;45.91;40.21;67.61;;
72028;Laerm;59781;52.090;5.030;2023-03-01T12:49:17;44.96;39.95;62.10;;
72028;Laerm;59781;52.090;5.030;2023-03-01T12:52:21;44.62;39.76;63.63;;
72028;Laerm;59781;52.090;5.030;2023-03-01T12:54:54;43.07;39.74;54.32;;
72028;Laerm;59781;52.090;5.030;2023-03-01T13:00:41;45.74;39.44;69.54;;
72028;Laerm;59781;52.090;5.030;2023-03-01T13:10:29;43.09;39.46;56.28;;
72028;Laerm;59781;52.090;5.030;2023-03-01T13:33:48;44.52;40.13;55.03;;
72028;Laerm;59781;52.090;5.030;2023-03-01T13:39:25;43.54;39.62;64.90;;
72028;Laerm;59781;52.090;5.030;2023-03-01T13:41:55;43.95;39.19;57.51;;
72028;Laerm;59781;52.090;5.030;2023-03-01T13:44:33;49.76;39.73;72.93;;
72028;Laerm;59781;52.090;5.030;2023-03-01T13:49:59;45.69;40.07;65.44;;
72028;Laerm;59781;52.090;5.030;2023-03-01T13:52:43;46.61;39.37;67.55;;
72028;Laerm;59781;52.090;5.030;2023-03-01T13:55:24;43.78;39.78;52.60;;
72028;Laerm;59781;52.090;5.030;2023-03-01T13:57:57;43.65;40.17;60.28;;
72028;Laerm;59781;52.090;5.030;2023-03-01T14:01:03;44.44;39.83;65.38;;
72028;Laerm;59781;52.090;5.030;2023-03-01T14:03:33;44.29;39.80;55.17;;
72028;Laerm;59781;52.090;5.030;2023-03-01T14:06:06;44.51;39.06;61.68;;
72028;Laerm;59781;52.090;5.030;2023-03-01T14:08:36;46.65;40.37;66.39;;
72028;Laerm;59781;52.090;5.030;2023-03-01T14:20:07;42.68;39.55;58.47;;
72028;Laerm;59781;52.090;5.030;2023-03-01T14:22:36;43.83;39.38;58.83;;
72028;Laerm;59781;52.090;5.030;2023-03-01T14:28:27;43.94;39.79;54.74;;
72028;Laerm;59781;52.090;5.030;2023-03-01T14:30:57;42.73;39.26;51.43;;
72028;Laerm;59781;52.090;5.030;2023-03-01T14:33:34;44.40;39.55;54.01;;
72028;Laerm;59781;52.090;5.030;2023-03-01T14:36:11;53.87;39.33;70.26;;
72028;Laerm;59781;52.090;5.030;2023-03-01T14:38:41;43.29;39.66;56.95;;
72028;Laerm;59781;52.090;5.030;2023-03-01T14:41:17;44.88;39.90;67.99;;
72028;Laerm;59781;52.090;5.030;2023-03-01T14:43:51;43.66;39.54;62.34;;
72028;Laerm;59781;52.090;5.030;2023-03-01T14:46:36;50.71;39.73;71.27;;
72028;Laerm;59781;52.090;5.030;2023-03-01T14:49:15;44.90;39.72;68.88;;
72028;Laerm;59781;52.090;5.030;2023-03-01T14:51:58;48.94;39.94;73.70;;
72028;Laerm;59781;52.090;5.030;2023-03-01T14:57:04;44.19;39.95;60.64;;
72028;Laerm;59781;52.090;5.030;2023-03-01T14:59:29;46.92;39.58;68.43;;
72028;Laerm;59781;52.090;5.030;2023-03-01T15:01:59;43.28;39.75;56.22;;
72028;Laerm;59781;52.090;5.030;2023-03-01T15:04:28;43.37;39.42;50.89;;
72028;Laerm;59781;52.090;5.030;2023-03-01T15:06:57;42.91;39.31;56.44;;
72028;Laerm;59781;52.090;5.030;2023-03-01T15:09:36;44.90;39.56;54.31;;
72028;Laerm;59781;52.090;5.030;2023-03-01T15:12:32;43.10;38.95;56.66;;
72028;Laerm;59781;52.090;5.030;2023-03-01T15:14:59;46.69;40.35;69.35;;
72028;Laerm;59781;52.090;5.030;2023-03-01T15:17:37;44.73;38.97;64.70;;
72028;Laerm;59781;52.090;5.030;2023-03-01T15:20:18;44.02;40.11;58.58;;
72028;Laerm;59781;52.090;5.030;2023-03-01T15:22:48;43.77;40.14;53.53;;
72028;Laerm;59781;52.090;5.030;2023-03-01T15:25:21;42.74;39.21;53.12;;
72028;Laerm;59781;52.090;5.030;2023-03-01T15:27:51;45.91;39.53;68.45;;
72028;Laerm;59781;52.090;5.030;2023-03-01T15:30:31;44.62;39.65;66.12;;
72028;Laerm;59781;52.090;5.030;2023-03-01T15:33:30;43.11;39.60;53.99;;
72028;Laerm;59781;52.090;5.030;2023-03-01T15:35:59;42.67;38.94;54.57;;
72028;Laerm;59781;52.090;5.030;2023-03-01T15:38:57;43.36;39.19;68.40;;
72028;Laerm;59781;52.090;5.030;2023-03-01T15:41:48;43.56;39.91;57.39;;
72028;Laerm;59781;52.090;5.030;2023-03-01T15:44:31;45.59;40.02;61.78;;
72028;Laerm;59781;52.090;5.030;2023-03-01T15:46:58;43.61;39.11;52.43;;
72028;Laerm;59781;52.090;5.030;2023-03-01T15:49:39;46.44;39.52;64.55;;
72028;Laerm;59781;52.090;5.030;2023-03-01T15:55:02;43.78;39.91;57.93;;
72028;Laerm;59781;52.090;5.030;2023-03-01T15:57:29;43.07;39.69;57.42;;
72028;Laerm;59781;52.090;5.030;2023-03-01T15:59:55;44.60;39.23;55.87;;
72028;Laerm;59781;52.090;5.030;2023-03-01T16:02:23;51.42;39.11;69.32;;
72028;Laerm;59781;52.090;5.030;2023-03-01T16:04:50;43.26;39.89;51.72;;
72028;Laerm;59781;52.090;5.030;2023-03-01T16:07:17;48.40;39.46;58.68;;
72028;Laerm;59781;52.090;5.030;2023-03-01T16:09:42;44.51;40.09;59.55;;
72028;Laerm;59781;52.090;5.030;2023-03-01T16:12:16;45.13;40.12;67.12;;
72028;Laerm;59781;52.090;5.030;2023-03-01T16:14:42;43.55;39.99;57.18;;